Time;durP1;ratioP1;P1;durP2;ratioP2;P2;SDS_P1;SDS_P2;PMS_P1;PMS_P2;Temp;Humidity;BMP_temperature;BMP_pressure;BME280_temperature;BME280_humidity;BME280_pressure;Samples;Min_cycle;Max_cycle;Signal;HPM_P1;HPM_P2
2023/09/29 00:01:33;;;;;;;4.50;2.78;;;15.20;77.90;;;;;;4986646;28;20041;-63
2023/09/29 00:03:59;;;;;;;3.72;3.33;;;15.20;77.90;;;;;;4986389;28;20387;-62
2023/09/29 00:06:25;;;;;;;7.60;3.75;;;15.20;78.00;;;;;;4986508;28;20400;-63
2023/09/29 00:08:50;;;;;;;5.50;3.67;;;15.20;78.40;;;;;;4985971;28;20038;-62
2023/09/29 00:11:16;;;;;;;3.88;3.50;;;15.20;78.50;;;;;;4986605;28;20058;-63
2023/09/29 00:13:42;;;;;;;4.32;3.47;;;15.10;78.60;;;;;;4986108;28;20077;-63
2023/09/29 00:16:07;;;;;;;3.50;3.00;;;15.10;78.80;;;;;;4986875;28;20030;-63
2023/09/29 00:18:33;;;;;;;3.58;2.50;;;15.10;78.80;;;;;;4984957;28;20077;-63
2023/09/29 00:20:59;;;;;;;3.92;2.58;;;15.00;78.70;;;;;;4986565;28;20038;-63
2023/09/29 00:23:25;;;;;;;2.45;2.15;;;15.00;78.40;;;;;;4986226;28;20566;-62
2023/09/29 00:25:50;;;;;;;4.35;2.42;;;15.00;78.30;;;;;;4986589;28;20045;-62
2023/09/29 00:28:16;;;;;;;6.30;2.63;;;15.00;78.10;;;;;;4985830;28;20057;-63
2023/09/29 00:30:42;;;;;;;2.47;2.28;;;15.00;77.90;;;;;;4986008;28;20038;-63
2023/09/29 00:33:08;;;;;;;4.30;2.05;;;15.00;77.90;;;;;;4986270;28;20038;-62
2023/09/29 00:35:34;;;;;;;5.30;2.42;;;14.90;77.90;;;;;;4986626;28;20050;-63
2023/09/29 00:38:00;;;;;;;4.15;2.50;;;14.90;78.00;;;;;;4986388;28;20038;-63
2023/09/29 00:40:27;;;;;;;4.72;2.15;;;14.90;78.10;;;;;;4986179;28;20046;-62
2023/09/29 00:42:53;;;;;;;2.92;2.10;;;14.90;78.10;;;;;;4985792;28;20089;-62
2023/09/29 00:45:23;;;;;;;2.35;2.15;;;14.80;78.00;;;;;;4986628;28;20069;-63
2023/09/29 00:47:51;;;;;;;4.72;2.50;;;14.80;78.20;;;;;;4986092;28;20054;-63
2023/09/29 00:50:20;;;;;;;2.28;2.08;;;14.70;78.20;;;;;;4986279;28;20061;-63
2023/09/29 00:52:47;;;;;;;3.03;2.03;;;14.70;79.30;;;;;;4985804;28;20555;-63
2023/09/29 00:55:14;;;;;;;2.55;2.20;;;14.60;78.50;;;;;;4984821;28;20038;-63
2023/09/29 00:57:45;;;;;;;3.40;2.58;;;14.70;78.60;;;;;;4986407;28;20053;-63
2023/09/29 01:00:29;;;;;;;4.15;2.38;;;14.60;78.80;;;;;;4986015;28;20117;-62
2023/09/29 01:03:06;;;;;;;5.10;2.70;;;14.60;78.70;;;;;;4984090;28;20034;-63
2023/09/29 01:05:44;;;;;;;3.05;2.72;;;14.60;79.10;;;;;;4986083;28;20048;-63
2023/09/29 01:08:12;;;;;;;4.53;2.30;;;14.60;79.10;;;;;;4985922;28;20062;-63
2023/09/29 01:10:39;;;;;;;3.15;2.65;;;14.60;79.00;;;;;;4985113;28;20041;-63
2023/09/29 01:13:06;;;;;;;2.85;2.55;;;14.60;79.10;;;;;;4985000;28;20101;-63
2023/09/29 01:15:36;;;;;;;4.45;2.75;;;14.60;79.30;;;;;;4985483;28;20453;-63
2023/09/29 01:18:02;;;;;;;3.72;3.08;;;14.60;79.30;;;;;;4985936;28;20136;-63
2023/09/29 01:20:30;;;;;;;3.00;2.70;;;14.50;79.10;;;;;;4983796;28;20478;-63
2023/09/29 01:23:05;;;;;;;2.90;2.33;;;14.50;79.10;;;;;;4984786;28;20468;-63
2023/09/29 01:25:31;;;;;;;2.40;2.20;;;14.40;79.40;;;;;;4986144;28;20117;-62
2023/09/29 01:27:58;;;;;;;2.97;2.45;;;14.40;79.10;;;;;;4985841;28;20417;-63
2023/09/29 01:30:25;;;;;;;3.40;2.25;;;14.40;78.90;;;;;;4988930;28;20041;-62
2023/09/29 01:32:53;;;;;;;2.65;1.98;;;14.30;78.80;;;;;;4988810;28;20038;-62
2023/09/29 01:35:25;;;;;;;4.72;2.25;;;14.30;78.90;;;;;;4989820;28;20434;-63
2023/09/29 01:37:53;;;;;;;2.83;2.03;;;14.30;78.80;;;;;;4989600;28;20429;-63
2023/09/29 01:40:22;;;;;;;2.78;2.15;;;14.30;78.70;;;;;;4989784;28;20034;-63
2023/09/29 01:42:50;;;;;;;3.63;2.20;;;14.20;78.60;;;;;;4988628;28;20043;-63
2023/09/29 01:45:15;;;;;;;2.90;2.40;;;14.20;78.60;;;;;;4988936;28;20062;-63
2023/09/29 01:47:46;;;;;;;2.38;2.17;;;14.20;78.60;;;;;;4989658;28;20529;-63
2023/09/29 01:50:15;;;;;;;2.22;1.77;;;14.10;78.70;;;;;;4989502;28;20041;-63
2023/09/29 01:52:41;;;;;;;2.40;2.00;;;14.10;78.80;;;;;;4988481;28;20045;-63
2023/09/29 01:55:12;;;;;;;3.38;2.40;;;14.20;78.70;;;;;;4988845;28;20044;-62
2023/09/29 01:57:38;;;;;;;3.03;2.30;;;14.10;78.60;;;;;;4989611;28;20050;-62
2023/09/29 02:00:05;;;;;;;4.07;2.33;;;14.10;78.70;;;;;;4989085;28;20053;-61
2023/09/29 02:02:31;;;;;;;5.25;2.65;;;14.00;78.90;;;;;;4988242;28;20505;-63
2023/09/29 02:04:56;;;;;;;2.95;2.50;;;14.00;79.10;;;;;;4989207;28;20042;-62
2023/09/29 02:07:23;;;;;;;3.58;2.65;;;14.00;79.30;;;;;;4989187;28;20289;-62
2023/09/29 02:09:49;;;;;;;3.67;2.67;;;13.90;79.30;;;;;;4988845;28;20573;-62
2023/09/29 02:12:17;;;;;;;3.03;2.58;;;13.90;79.30;;;;;;4987546;28;20034;-62
2023/09/29 02:14:42;;;;;;;3.00;2.45;;;13.90;79.40;;;;;;4988394;28;20041;-62
2023/09/29 02:17:08;;;;;;;2.70;2.33;;;13.80;79.40;;;;;;4989015;28;20061;-63
2023/09/29 02:19:35;;;;;;;3.08;2.20;;;13.80;80.30;;;;;;4988805;28;20605;-63
2023/09/29 02:22:01;;;;;;;2.13;1.92;;;13.80;79.50;;;;;;4988929;28;20053;-63
2023/09/29 02:24:27;;;;;;;5.38;1.98;;;13.70;79.70;;;;;;4988551;28;20181;-63
2023/09/29 02:26:52;;;;;;;3.08;2.20;;;13.70;79.80;;;;;;4989075;28;20114;-63
2023/09/29 02:29:18;;;;;;;2.67;2.22;;;13.70;79.90;;;;;;4988789;28;20038;-63
2023/09/29 02:31:44;;;;;;;2.42;2.08;;;13.70;79.80;;;;;;4988545;28;20034;-63
2023/09/29 02:34:09;;;;;;;3.38;2.10;;;13.70;79.70;;;;;;4988525;28;20049;-63
2023/09/29 02:36:36;;;;;;;4.47;2.35;;;13.70;79.80;;;;;;4987847;28;20133;-63
2023/09/29 02:39:04;;;;;;;2.53;2.33;;;13.70;79.80;;;;;;4988383;28;20609;-63
2023/09/29 02:41:30;;;;;;;2.95;2.58;;;13.80;79.70;;;;;;4987925;28;20042;-63
2023/09/29 02:43:56;;;;;;;4.80;2.20;;;13.70;79.40;;;;;;4987712;28;20080;-62
2023/09/29 02:46:22;;;;;;;2.55;2.35;;;13.70;79.40;;;;;;4988621;28;20041;-63
2023/09/29 02:48:48;;;;;;;3.00;2.70;;;13.70;79.60;;;;;;4987661;28;20119;-62
2023/09/29 02:51:18;;;;;;;3.20;2.45;;;13.70;79.80;;;;;;4988371;28;20038;-63
2023/09/29 02:53:44;;;;;;;2.22;2.03;;;13.70;80.00;;;;;;4986744;28;20153;-60
2023/09/29 02:56:12;;;;;;;3.33;2.42;;;13.70;79.80;;;;;;4988076;28;20046;-62
2023/09/29 02:58:41;;;;;;;2.60;2.40;;;13.70;79.80;;;;;;4987727;28;20039;-62
2023/09/29 03:01:16;;;;;;;3.15;2.38;;;13.70;79.80;;;;;;4988247;28;20061;-63
2023/09/29 03:03:45;;;;;;;2.78;2.50;;;13.70;79.70;;;;;;4987388;28;20038;-63
2023/09/29 03:06:20;;;;;;;2.75;2.55;;;13.70;79.60;;;;;;4988079;28;20470;-63
2023/09/29 03:08:54;;;;;;;3.20;2.90;;;13.70;80.00;;;;;;4987699;28;20121;-63
2023/09/29 03:11:20;;;;;;;3.40;3.10;;;13.70;80.00;;;;;;4987586;28;20027;-61
2023/09/29 03:13:46;;;;;;;3.42;2.90;;;13.70;79.80;;;;;;4987206;28;20138;-63
2023/09/29 03:16:12;;;;;;;3.10;2.78;;;13.70;79.80;;;;;;4988018;28;20117;-61
2023/09/29 03:18:39;;;;;;;3.58;2.85;;;13.60;79.80;;;;;;4987855;28;20046;-63
2023/09/29 03:21:05;;;;;;;2.47;2.25;;;13.50;79.80;;;;;;4985778;28;20045;-61
2023/09/29 03:23:34;;;;;;;2.75;2.30;;;13.50;79.80;;;;;;4987698;28;20038;-63
2023/09/29 03:26:01;;;;;;;5.78;2.65;;;13.50;79.90;;;;;;4987473;28;20112;-63
2023/09/29 03:28:26;;;;;;;2.63;2.15;;;13.50;79.60;;;;;;4987552;28;20109;-63
2023/09/29 03:30:52;;;;;;;3.53;2.55;;;13.40;79.40;;;;;;4987396;28;20081;-63
2023/09/29 03:33:17;;;;;;;3.17;2.22;;;13.40;79.30;;;;;;4988231;28;20030;-63
2023/09/29 03:35:43;;;;;;;5.35;2.55;;;13.40;79.60;;;;;;4988043;28;20078;-63
2023/09/29 03:38:09;;;;;;;5.10;2.72;;;13.40;80.00;;;;;;4988459;28;20490;-63
2023/09/29 03:40:34;;;;;;;2.92;2.10;;;13.30;80.00;;;;;;4986133;28;20518;-63
2023/09/29 03:43:01;;;;;;;3.28;2.58;;;13.30;80.00;;;;;;4987886;28;20042;-62
2023/09/29 03:45:27;;;;;;;2.65;2.40;;;13.30;80.30;;;;;;4987993;28;20120;-63
2023/09/29 03:47:52;;;;;;;4.15;2.53;;;13.30;80.30;;;;;;4987150;28;20058;-63
2023/09/29 03:50:18;;;;;;;2.83;2.50;;;13.30;80.40;;;;;;4986872;28;20042;-63
2023/09/29 03:52:46;;;;;;;3.00;2.70;;;13.30;80.30;;;;;;4986430;28;20038;-63
2023/09/29 03:55:14;;;;;;;3.88;2.78;;;13.40;80.20;;;;;;4986372;28;20391;-63
2023/09/29 03:57:48;;;;;;;4.15;3.28;;;13.30;80.00;;;;;;4987900;28;20034;-61
2023/09/29 04:00:15;;;;;;;4.77;3.50;;;13.30;80.00;;;;;;4987099;28;20068;-63
2023/09/29 04:02:41;;;;;;;4.13;3.35;;;13.30;80.00;;;;;;4986109;28;20073;-63
2023/09/29 04:05:07;;;;;;;6.18;3.35;;;13.30;80.10;;;;;;4986299;28;20053;-63
2023/09/29 04:07:36;;;;;;;5.07;3.20;;;13.20;80.20;;;;;;4986766;28;20034;-62
2023/09/29 04:10:02;;;;;;;3.22;2.65;;;13.20;80.40;;;;;;4987021;28;20042;-63
2023/09/29 04:12:28;;;;;;;5.40;3.47;;;13.20;80.50;;;;;;4985869;28;20038;-62
2023/09/29 04:14:53;;;;;;;3.53;3.22;;;13.20;80.60;;;;;;4986216;28;20184;-63
2023/09/29 04:17:20;;;;;;;3.47;2.80;;;13.20;80.40;;;;;;4986354;28;20093;-63
2023/09/29 04:19:46;;;;;;;3.08;2.67;;;13.20;80.50;;;;;;4986535;28;20383;-63
2023/09/29 04:22:11;;;;;;;5.50;2.95;;;13.10;80.50;;;;;;4987392;28;20054;-62
2023/09/29 04:24:39;;;;;;;4.40;2.60;;;13.20;80.60;;;;;;4986915;28;20521;-63
2023/09/29 04:27:05;;;;;;;4.97;3.25;;;13.20;80.80;;;;;;4987226;28;20490;-62
2023/09/29 04:29:31;;;;;;;3.75;3.42;;;13.20;80.60;;;;;;4987184;28;20354;-62
2023/09/29 04:31:57;;;;;;;4.38;3.55;;;13.20;80.60;;;;;;4987211;28;20045;-62
2023/09/29 04:34:23;;;;;;;5.38;3.70;;;13.20;80.30;;;;;;4987408;28;20038;-62
2023/09/29 04:36:48;;;;;;;4.70;3.33;;;13.10;80.20;;;;;;4986761;28;20414;-63
2023/09/29 04:39:15;;;;;;;3.92;3.08;;;13.10;80.30;;;;;;4987083;28;20529;-63
2023/09/29 04:41:40;;;;;;;5.75;3.42;;;13.10;80.50;;;;;;4986876;28;20025;-63
2023/09/29 04:44:06;;;;;;;5.00;4.05;;;13.00;80.60;;;;;;4986801;28;20031;-62
2023/09/29 04:46:34;;;;;;;6.00;4.53;;;12.90;80.50;;;;;;4986202;28;20088;-63
2023/09/29 04:49:00;;;;;;;5.60;5.00;;;12.90;80.60;;;;;;4986977;28;20057;-63
2023/09/29 04:51:26;;;;;;;8.80;5.30;;;12.90;80.80;;;;;;4986648;28;20041;-62
2023/09/29 04:53:51;;;;;;;4.93;4.45;;;12.90;80.80;;;;;;4986319;28;20027;-62
2023/09/29 04:56:17;;;;;;;6.03;4.40;;;12.90;80.80;;;;;;4986733;28;20073;-63
2023/09/29 04:58:42;;;;;;;5.05;4.30;;;12.90;80.90;;;;;;4986875;28;20035;-62
2023/09/29 05:01:08;;;;;;;5.60;4.47;;;12.90;80.80;;;;;;4985913;28;20414;-63
2023/09/29 05:03:33;;;;;;;5.25;4.55;;;12.90;80.60;;;;;;4985697;28;20086;-63
2023/09/29 05:05:59;;;;;;;4.63;4.03;;;12.90;80.60;;;;;;4987024;28;20121;-62
2023/09/29 05:08:24;;;;;;;5.20;4.30;;;12.80;80.60;;;;;;4986451;28;20042;-63
2023/09/29 05:10:50;;;;;;;5.53;4.25;;;12.90;80.80;;;;;;4986820;28;20453;-62
2023/09/29 05:13:16;;;;;;;7.55;4.70;;;12.90;80.70;;;;;;4986696;28;20122;-62
2023/09/29 05:15:41;;;;;;;5.55;4.50;;;12.80;80.80;;;;;;4986581;28;20068;-63
2023/09/29 05:18:07;;;;;;;6.75;4.70;;;12.80;81.70;;;;;;4986763;28;20043;-63
2023/09/29 05:20:32;;;;;;;4.93;4.43;;;12.70;80.80;;;;;;4986190;28;20038;-63
2023/09/29 05:22:58;;;;;;;6.00;4.25;;;12.70;80.90;;;;;;4986236;28;20034;-62
2023/09/29 05:25:23;;;;;;;6.97;4.10;;;12.60;81.10;;;;;;4986615;28;20406;-63
2023/09/29 05:27:49;;;;;;;6.07;4.38;;;12.60;81.20;;;;;;4986695;28;20125;-63
2023/09/29 05:30:16;;;;;;;4.15;3.75;;;12.60;81.40;;;;;;4986543;28;20490;-63
2023/09/29 05:32:42;;;;;;;4.55;3.67;;;12.60;81.70;;;;;;4985726;28;20039;-63
2023/09/29 05:35:08;;;;;;;6.15;4.00;;;12.50;81.90;;;;;;4986632;28;20498;-63
2023/09/29 05:37:33;;;;;;;10.68;4.10;;;12.60;82.00;;;;;;4986689;28;20041;-63
2023/09/29 05:40:03;;;;;;;6.70;3.65;;;12.60;81.90;;;;;;4986657;28;20042;-63
2023/09/29 05:42:30;;;;;;;4.55;4.05;;;12.60;81.90;;;;;;4986075;28;20082;-62
2023/09/29 05:44:55;;;;;;;5.78;3.92;;;12.60;82.00;;;;;;4985500;28;20038;-63
2023/09/29 05:47:21;;;;;;;6.75;4.82;;;12.60;82.10;;;;;;4986752;28;20038;-63
2023/09/29 05:49:47;;;;;;;5.80;4.30;;;12.60;82.20;;;;;;4986271;28;20038;-63
2023/09/29 05:52:12;;;;;;;8.30;4.97;;;12.70;82.20;;;;;;4986302;28;20091;-63
2023/09/29 05:54:38;;;;;;;7.18;4.35;;;12.70;82.40;;;;;;4984942;28;20031;-63
2023/09/29 05:57:04;;;;;;;7.93;4.65;;;12.70;82.60;;;;;;4986659;28;20031;-62
2023/09/29 05:59:29;;;;;;;9.90;4.50;;;12.70;82.70;;;;;;4986280;28;20153;-61
2023/09/29 06:01:56;;;;;;;8.15;4.68;;;12.70;82.70;;;;;;4986316;28;20058;-63
2023/09/29 06:04:22;;;;;;;6.30;4.40;;;12.80;82.80;;;;;;4986253;28;20038;-61
2023/09/29 06:06:47;;;;;;;8.90;4.55;;;12.80;83.00;;;;;;4985635;28;20085;-63
2023/09/29 06:09:13;;;;;;;7.05;4.40;;;12.80;83.20;;;;;;4986562;28;20035;-63
2023/09/29 06:11:39;;;;;;;9.35;4.28;;;12.90;83.40;;;;;;4984682;28;20121;-63
2023/09/29 06:14:06;;;;;;;8.55;4.90;;;12.90;83.60;;;;;;4986135;28;20039;-62
2023/09/29 06:16:32;;;;;;;7.45;4.90;;;13.00;83.70;;;;;;4987781;28;20035;-63
2023/09/29 06:18:57;;;;;;;7.20;4.35;;;13.00;83.70;;;;;;4989411;28;20030;-63
2023/09/29 06:21:23;;;;;;;8.75;4.50;;;13.00;83.70;;;;;;4989951;28;20046;-63
2023/09/29 06:23:49;;;;;;;9.48;4.95;;;13.00;83.80;;;;;;4989043;28;20027;-63
2023/09/29 06:26:14;;;;;;;8.93;4.90;;;13.00;83.80;;;;;;4989724;28;20049;-61
2023/09/29 06:28:40;;;;;;;8.27;4.80;;;13.10;84.00;;;;;;4988498;28;20037;-63
2023/09/29 06:31:06;;;;;;;7.35;5.10;;;13.10;84.00;;;;;;4989616;28;20038;-62
2023/09/29 06:33:32;;;;;;;8.23;5.13;;;13.20;84.00;;;;;;4988910;28;20096;-63
2023/09/29 06:35:57;;;;;;;7.93;4.70;;;13.20;84.00;;;;;;4989214;28;20038;-63
2023/09/29 06:38:23;;;;;;;10.65;5.70;;;13.20;84.10;;;;;;4989507;28;20518;-63
2023/09/29 06:40:49;;;;;;;8.88;5.57;;;13.20;84.20;;;;;;4988883;28;20034;-63
2023/09/29 06:43:17;;;;;;;10.13;5.15;;;13.20;84.50;;;;;;4988951;28;20085;-61
2023/09/29 06:45:42;;;;;;;7.82;4.88;;;13.20;84.80;;;;;;4989489;28;20487;-62
2023/09/29 06:48:08;;;;;;;8.32;5.30;;;13.30;85.20;;;;;;4989484;28;20045;-63
2023/09/29 06:50:33;;;;;;;7.00;5.35;;;13.30;85.40;;;;;;4988861;28;20107;-63
2023/09/29 06:52:59;;;;;;;8.73;5.68;;;13.40;85.70;;;;;;4988564;28;20026;-63
2023/09/29 06:55:25;;;;;;;13.15;5.55;;;13.40;85.80;;;;;;4988182;28;20041;-63
2023/09/29 06:57:51;;;;;;;13.73;5.60;;;13.50;85.90;;;;;;4988855;28;20031;-63
2023/09/29 07:00:17;;;;;;;8.98;6.00;;;13.60;86.20;;;;;;4989067;28;20093;-63
2023/09/29 07:02:43;;;;;;;11.35;6.07;;;13.70;86.90;;;;;;4988307;28;20533;-63
2023/09/29 07:05:09;;;;;;;9.38;6.38;;;13.80;87.40;;;;;;4988753;28;20050;-62
2023/09/29 07:07:35;;;;;;;12.35;5.93;;;13.90;87.90;;;;;;4988666;28;20049;-62
2023/09/29 07:10:00;;;;;;;9.00;5.65;;;13.90;87.90;;;;;;4987845;28;20046;-63
2023/09/29 07:12:26;;;;;;;7.75;5.18;;;14.10;87.80;;;;;;4986597;28;20049;-62
2023/09/29 07:14:52;;;;;;;10.45;5.93;;;14.10;88.00;;;;;;4988907;28;20575;-62
2023/09/29 07:17:17;;;;;;;11.05;5.68;;;14.20;88.10;;;;;;4988667;28;20031;-62
2023/09/29 07:19:43;;;;;;;7.75;5.38;;;14.30;88.50;;;;;;4988304;28;20050;-63
2023/09/29 07:22:09;;;;;;;7.45;5.40;;;14.40;88.60;;;;;;4988820;28;20045;-63
2023/09/29 07:24:35;;;;;;;6.65;5.45;;;14.50;88.70;;;;;;4987851;28;20042;-63
2023/09/29 07:27:00;;;;;;;10.63;6.15;;;14.60;88.90;;;;;;4987990;28;20468;-61
2023/09/29 07:29:26;;;;;;;9.10;5.80;;;14.80;89.20;;;;;;4988806;28;20030;-62
2023/09/29 07:31:51;;;;;;;9.82;5.70;;;14.80;89.70;;;;;;4988564;28;20039;-63
2023/09/29 07:34:17;;;;;;;9.40;6.03;;;15.00;89.70;;;;;;4988670;28;20305;-63
2023/09/29 07:36:48;;;;;;;14.15;6.28;;;15.10;89.80;;;;;;4988322;28;20049;-63
2023/09/29 07:39:15;;;;;;;15.38;6.25;;;15.30;90.20;;;;;;4988254;28;20132;-62
2023/09/29 07:41:41;;;;;;;14.05;6.60;;;15.40;90.20;;;;;;4987859;28;20045;-63
2023/09/29 07:44:08;;;;;;;10.38;6.00;;;15.60;90.30;;;;;;4988028;28;20286;-62
2023/09/29 07:46:35;;;;;;;8.32;5.57;;;15.80;90.20;;;;;;4987644;28;20038;-63
2023/09/29 07:49:01;;;;;;;8.90;5.45;;;15.90;90.20;;;;;;4988091;28;20034;-62
2023/09/29 07:51:27;;;;;;;11.70;5.75;;;16.10;90.00;;;;;;4988042;28;20111;-63
2023/09/29 07:53:52;;;;;;;8.88;4.82;;;16.30;89.80;;;;;;4987864;28;20490;-62
2023/09/29 07:56:18;;;;;;;6.28;4.55;;;16.50;89.50;;;;;;4985325;28;20561;-62
2023/09/29 07:58:43;;;;;;;9.88;5.03;;;16.70;89.20;;;;;;4987256;28;20514;-62
2023/09/29 08:01:10;;;;;;;8.10;4.65;;;16.80;88.80;;;;;;4987169;28;20035;-63
2023/09/29 08:03:36;;;;;;;9.63;4.80;;;17.00;88.50;;;;;;4987047;28;20399;-62
2023/09/29 08:06:01;;;;;;;7.57;4.97;;;17.20;88.10;;;;;;4989177;28;20049;-63
2023/09/29 08:08:28;;;;;;;10.38;4.95;;;17.30;87.80;;;;;;4988548;28;20056;-61
2023/09/29 08:10:54;;;;;;;9.57;4.85;;;17.50;88.10;;;;;;4988476;28;20514;-63
2023/09/29 08:13:19;;;;;;;6.35;4.68;;;17.70;87.10;;;;;;4988801;28;20073;-63
2023/09/29 08:15:46;;;;;;;7.00;5.13;;;17.90;87.50;;;;;;4988876;28;20065;-63
2023/09/29 08:18:12;;;;;;;5.68;4.35;;;18.00;86.30;;;;;;4988872;28;20445;-63
2023/09/29 08:20:38;;;;;;;8.10;4.70;;;18.20;86.00;;;;;;4988073;28;20038;-63
2023/09/29 08:23:04;;;;;;;7.45;4.70;;;18.40;85.90;;;;;;4988266;28;20041;-62
2023/09/29 08:25:31;;;;;;;6.80;4.50;;;18.50;85.40;;;;;;4988493;28;20053;-63
2023/09/29 08:27:57;;;;;;;7.07;4.32;;;18.70;84.90;;;;;;4988318;28;20532;-61
2023/09/29 08:30:23;;;;;;;6.30;4.65;;;18.80;84.20;;;;;;4987845;28;20042;-62
2023/09/29 08:32:48;;;;;;;7.85;5.00;;;19.00;83.70;;;;;;4987841;28;20262;-63
2023/09/29 08:35:15;;;;;;;9.35;4.88;;;19.10;83.20;;;;;;4988718;28;20031;-63
2023/09/29 08:37:41;;;;;;;6.32;4.47;;;19.20;82.70;;;;;;4988069;28;20042;-63
2023/09/29 08:40:12;;;;;;;7.53;4.57;;;19.40;82.60;;;;;;4988016;28;20559;-62
2023/09/29 08:42:39;;;;;;;9.93;4.90;;;19.50;82.40;;;;;;4987490;28;20092;-63
2023/09/29 08:45:09;;;;;;;12.00;5.03;;;19.60;82.00;;;;;;4988577;28;20067;-63
2023/09/29 08:47:37;;;;;;;9.10;4.55;;;19.70;81.90;;;;;;4987978;28;20456;-63
2023/09/29 08:50:04;;;;;;;5.82;4.38;;;19.80;81.50;;;;;;4988043;28;20034;-63
2023/09/29 08:52:32;;;;;;;6.93;4.53;;;20.00;81.00;;;;;;4987228;28;20069;-62
2023/09/29 08:55:03;;;;;;;7.88;4.75;;;20.10;80.80;;;;;;4986827;28;20035;-61
2023/09/29 08:57:29;;;;;;;6.93;4.63;;;20.20;80.50;;;;;;4988479;28;20108;-63
2023/09/29 08:59:55;;;;;;;5.95;4.53;;;20.40;80.10;;;;;;4987964;28;20038;-63
2023/09/29 09:02:24;;;;;;;7.38;4.28;;;20.50;79.60;;;;;;4987946;28;20031;-63
2023/09/29 09:04:50;;;;;;;7.43;4.55;;;20.60;79.40;;;;;;4987562;28;20425;-63
2023/09/29 09:07:16;;;;;;;6.25;4.22;;;20.70;79.30;;;;;;4988114;28;20382;-63
2023/09/29 09:09:52;;;;;;;6.20;4.10;;;20.90;78.90;;;;;;4987837;28;20030;-63
2023/09/29 09:12:18;;;;;;;8.43;3.70;;;21.00;78.10;;;;;;4987342;28;20129;-63
2023/09/29 09:14:44;;;;;;;7.43;4.43;;;21.10;78.30;;;;;;4987568;28;20121;-63
2023/09/29 09:17:10;;;;;;;8.95;3.85;;;21.30;78.10;;;;;;4988015;28;20085;-63
2023/09/29 09:19:51;;;;;;;6.60;4.32;;;21.40;77.50;;;;;;4987100;28;20447;-63
2023/09/29 09:22:22;;;;;;;5.10;3.72;;;21.50;76.40;;;;;;4987718;28;20042;-63
2023/09/29 09:24:48;;;;;;;7.00;3.95;;;21.50;76.50;;;;;;4987314;28;20038;-63
2023/09/29 09:27:14;;;;;;;5.57;3.90;;;21.80;76.30;;;;;;4987960;28;20096;-63
2023/09/29 09:29:44;;;;;;;5.28;3.97;;;21.80;75.90;;;;;;4988110;28;20498;-63
2023/09/29 09:32:10;;;;;;;5.28;4.07;;;21.90;75.40;;;;;;4987082;28;20077;-64
2023/09/29 09:34:37;;;;;;;6.57;4.38;;;22.00;75.10;;;;;;4987404;28;20457;-63
2023/09/29 09:37:03;;;;;;;6.68;4.10;;;22.00;75.80;;;;;;4987943;28;20561;-63
2023/09/29 09:39:29;;;;;;;6.78;3.80;;;22.10;74.60;;;;;;4987774;28;20473;-63
2023/09/29 09:41:56;;;;;;;4.25;3.60;;;22.20;74.60;;;;;;4987646;28;20449;-64
2023/09/29 09:44:23;;;;;;;7.03;4.10;;;22.20;74.40;;;;;;4987781;28;20034;-64
2023/09/29 09:46:53;;;;;;;4.55;3.45;;;22.20;73.90;;;;;;4987495;28;20159;-63
2023/09/29 09:49:28;;;;;;;5.85;3.72;;;22.20;73.50;;;;;;4988176;28;20085;-63
2023/09/29 09:51:58;;;;;;;5.07;3.50;;;22.30;73.70;;;;;;4991286;28;20049;-64
2023/09/29 09:54:31;;;;;;;6.30;3.70;;;22.30;73.70;;;;;;4990202;28;20417;-63
2023/09/29 09:57:03;;;;;;;5.00;3.78;;;22.50;72.90;;;;;;4990759;28;20271;-64
2023/09/29 09:59:30;;;;;;;6.40;3.53;;;22.50;73.00;;;;;;4991027;28;20553;-63
2023/09/29 10:01:56;;;;;;;6.30;3.83;;;22.60;73.20;;;;;;4991212;28;20062;-63
2023/09/29 10:04:26;;;;;;;4.82;3.50;;;22.70;72.80;;;;;;4991251;28;20042;-63
2023/09/29 10:06:55;;;;;;;4.05;3.40;;;22.70;72.60;;;;;;4990911;28;20034;-64
2023/09/29 10:09:21;;;;;;;6.55;3.33;;;22.80;72.50;;;;;;4991028;28;20496;-63
2023/09/29 10:12:00;;;;;;;7.57;3.67;;;22.80;72.20;;;;;;4990780;28;20104;-63
2023/09/29 10:14:26;;;;;;;6.85;3.40;;;22.90;71.60;;;;;;4990431;28;20471;-63
2023/09/29 10:17:12;;;;;;;6.40;3.47;;;22.90;72.00;;;;;;4991323;28;20033;-63
2023/09/29 10:19:38;;;;;;;7.70;3.47;;;22.90;71.90;;;;;;4990973;28;20042;-64
2023/09/29 10:22:06;;;;;;;6.25;3.60;;;22.90;73.00;;;;;;4990755;28;20076;-63
2023/09/29 10:24:31;;;;;;;7.22;4.10;;;23.00;72.00;;;;;;4990063;28;20038;-63
2023/09/29 10:27:05;;;;;;;8.35;3.97;;;23.00;71.70;;;;;;4990963;28;20030;-63
2023/09/29 10:29:37;;;;;;;7.75;3.63;;;23.00;71.70;;;;;;4990880;28;20027;-63
2023/09/29 10:32:15;;;;;;;6.97;3.70;;;23.10;71.40;;;;;;4990247;28;20038;-63
2023/09/29 10:34:42;;;;;;;5.45;3.67;;;23.10;71.10;;;;;;4990296;28;20038;-64
2023/09/29 10:37:11;;;;;;;4.95;3.42;;;23.20;71.00;;;;;;4990950;28;20065;-64
2023/09/29 10:39:36;;;;;;;5.82;3.75;;;23.20;70.90;;;;;;4990399;28;20134;-64
2023/09/29 10:42:12;;;;;;;4.38;3.17;;;23.30;70.40;;;;;;4990719;28;20126;-63
2023/09/29 10:44:52;;;;;;;4.82;3.67;;;23.30;70.60;;;;;;4990296;28;20038;-63
2023/09/29 10:47:35;;;;;;;6.18;3.50;;;23.40;69.70;;;;;;4989823;28;20023;-64
2023/09/29 10:50:10;;;;;;;5.20;3.53;;;23.40;69.50;;;;;;4989917;28;20026;-63
2023/09/29 10:52:36;;;;;;;8.68;3.60;;;23.50;69.90;;;;;;4990173;28;20181;-63
2023/09/29 10:55:04;;;;;;;7.22;3.70;;;23.60;70.20;;;;;;4988164;28;20054;-64
2023/09/29 10:57:30;;;;;;;4.13;3.30;;;23.60;69.70;;;;;;4990572;28;20162;-63
2023/09/29 10:59:59;;;;;;;4.28;3.20;;;23.70;69.40;;;;;;4989400;28;20117;-63
2023/09/29 11:02:33;;;;;;;3.83;2.90;;;23.80;69.40;;;;;;4988476;28;20418;-64
2023/09/29 11:05:03;;;;;;;4.63;3.30;;;23.80;68.80;;;;;;4987709;28;20481;-64
2023/09/29 11:07:29;;;;;;;5.80;3.05;;;23.90;68.80;;;;;;4988743;28;20181;-64
2023/09/29 11:09:59;;;;;;;4.95;3.25;;;24.00;69.20;;;;;;4984046;28;20035;-64
2023/09/29 11:12:27;;;;;;;7.75;2.95;;;24.10;69.20;;;;;;4986341;28;20125;-64
2023/09/29 11:15:07;;;;;;;5.75;2.80;;;24.20;69.00;;;;;;4988852;28;20088;-63
2023/09/29 11:17:47;;;;;;;3.60;2.50;;;24.30;68.00;;;;;;4989550;28;20042;-64
2023/09/29 11:20:26;;;;;;;6.28;2.83;;;24.40;66.20;;;;;;4988820;28;20580;-64
2023/09/29 11:23:06;;;;;;;4.60;2.80;;;24.50;66.80;;;;;;4988049;28;20038;-62
2023/09/29 11:25:31;;;;;;;5.72;3.10;;;24.60;66.50;;;;;;4989150;28;20038;-63
2023/09/29 11:27:57;;;;;;;11.60;3.00;;;24.70;67.40;;;;;;4989226;28;20088;-63
2023/09/29 11:30:24;;;;;;;4.22;2.70;;;24.80;67.10;;;;;;4989033;28;20613;-64
2023/09/29 11:32:53;;;;;;;2.97;2.75;;;24.90;66.50;;;;;;4988058;28;20038;-64
2023/09/29 11:35:21;;;;;;;8.15;2.85;;;25.00;65.30;;;;;;4988627;28;20687;-63
2023/09/29 11:37:47;;;;;;;4.50;2.83;;;25.10;64.70;;;;;;4989148;28;20034;-64
2023/09/29 11:40:13;;;;;;;3.67;2.58;;;25.10;64.40;;;;;;4988465;28;20035;-64
2023/09/29 11:42:40;;;;;;;3.25;2.45;;;25.10;63.90;;;;;;4987906;28;20125;-64
2023/09/29 11:45:08;;;;;;;4.90;2.67;;;25.30;64.20;;;;;;4988816;28;20120;-64
2023/09/29 11:47:37;;;;;;;3.85;3.10;;;25.40;64.10;;;;;;4989315;28;20118;-64
2023/09/29 11:50:03;;;;;;;5.25;2.70;;;25.50;64.50;;;;;;4988672;28;20046;-64
2023/09/29 11:52:28;;;;;;;4.35;2.75;;;25.50;63.60;;;;;;4987356;28;20402;-64
2023/09/29 11:54:54;;;;;;;5.72;2.72;;;25.60;63.30;;;;;;4988062;28;20034;-64
2023/09/29 11:57:20;;;;;;;11.13;2.38;;;25.70;63.30;;;;;;4988154;28;20053;-64
2023/09/29 11:59:45;;;;;;;4.47;2.70;;;25.70;63.10;;;;;;4987891;28;20034;-63
2023/09/29 12:02:11;;;;;;;4.18;2.55;;;25.80;63.60;;;;;;4987906;28;20259;-64
2023/09/29 12:04:37;;;;;;;7.85;2.13;;;25.90;61.80;;;;;;4986263;28;20037;-64
2023/09/29 12:07:04;;;;;;;4.00;2.33;;;25.90;60.40;;;;;;4987407;28;20037;-64
2023/09/29 12:09:30;;;;;;;3.58;2.22;;;26.00;60.30;;;;;;4986031;28;20033;-63
2023/09/29 12:11:55;;;;;;;9.63;2.47;;;26.10;60.00;;;;;;4986740;28;20031;-63
2023/09/29 12:14:21;;;;;;;2.33;2.00;;;26.10;59.30;;;;;;4985518;28;20038;-63
2023/09/29 12:16:47;;;;;;;5.35;2.28;;;26.20;59.60;;;;;;4986029;28;20030;-63
2023/09/29 12:19:12;;;;;;;2.53;1.98;;;26.20;59.40;;;;;;4985642;28;20485;-64
2023/09/29 12:21:38;;;;;;;3.03;2.30;;;26.30;58.90;;;;;;4986448;28;20031;-63
2023/09/29 12:24:04;;;;;;;2.80;2.17;;;26.30;58.40;;;;;;4986136;28;20026;-63
2023/09/29 12:26:30;;;;;;;4.57;1.92;;;26.30;59.30;;;;;;4987000;28;20524;-63
2023/09/29 12:28:55;;;;;;;2.83;2.10;;;26.30;58.30;;;;;;4987974;28;20030;-64
2023/09/29 12:31:21;;;;;;;3.55;1.88;;;26.40;57.90;;;;;;4987158;28;20038;-64
2023/09/29 12:33:47;;;;;;;4.80;2.13;;;26.40;58.00;;;;;;4987367;28;20038;-63
2023/09/29 12:36:12;;;;;;;3.50;2.00;;;26.50;58.20;;;;;;4987129;28;20042;-64
2023/09/29 12:38:38;;;;;;;6.15;2.53;;;26.50;57.90;;;;;;4987503;28;20042;-63
2023/09/29 12:41:03;;;;;;;4.00;1.80;;;26.60;57.70;;;;;;4988410;28;20113;-63
2023/09/29 12:43:29;;;;;;;5.10;2.10;;;26.60;57.60;;;;;;4988269;28;20524;-64
2023/09/29 12:45:55;;;;;;;5.10;2.13;;;26.60;57.30;;;;;;4988167;28;20422;-64